Time;durP1;ratioP1;P1;durP2;ratioP2;P2;SDS_P1;SDS_P2;PMS_P1;PMS_P2;Temp;Humidity;BMP_temperature;BMP_pressure;BME280_temperature;BME280_humidity;BME280_pressure;Samples;Min_cycle;Max_cycle;Signal;HPM_P1;HPM_P2
2023/08/22 00:00:26;;;;;;;1999.90;999.90;;;22.90;99.90;;;;;;5091161;28;20481;-75
2023/08/22 00:02:52;;;;;;;1999.90;999.90;;;22.80;99.90;;;;;;5092629;28;20079;-76
2023/08/22 00:05:18;;;;;;;1999.90;999.90;;;22.80;99.90;;;;;;5092601;28;20056;-76
2023/08/22 00:07:43;;;;;;;1999.90;999.90;;;22.70;99.90;;;;;;5092803;28;20051;-75
2023/08/22 00:10:10;;;;;;;1999.90;999.90;;;22.70;99.90;;;;;;5092153;28;20459;-76
2023/08/22 00:12:36;;;;;;;1999.90;999.90;;;22.70;99.90;;;;;;5076162;28;20095;-75
2023/08/22 00:15:04;;;;;;;1999.90;999.90;;;22.60;99.90;;;;;;5075930;28;20052;-75
2023/08/22 00:17:31;;;;;;;1999.90;999.90;;;22.50;99.90;;;;;;5074863;28;20029;-76
2023/08/22 00:19:56;;;;;;;1999.90;999.90;;;22.50;99.90;;;;;;5074529;28;20557;-76
2023/08/22 00:22:22;;;;;;;1999.90;999.90;;;22.50;99.90;;;;;;5074107;28;20093;-76
2023/08/22 00:24:48;;;;;;;1999.90;999.90;;;22.40;99.90;;;;;;5074701;28;20021;-75
2023/08/22 00:27:15;;;;;;;1999.90;999.90;;;22.30;99.90;;;;;;5075871;28;20013;-75
2023/08/22 00:29:40;;;;;;;1999.90;999.90;;;22.30;99.90;;;;;;5075960;28;20031;-76
2023/08/22 00:32:06;;;;;;;1999.90;999.90;;;22.30;99.90;;;;;;5075898;28;20103;-75
2023/08/22 00:34:31;;;;;;;1999.90;999.90;;;22.30;99.90;;;;;;5074383;28;20032;-76
2023/08/22 00:36:57;;;;;;;1999.90;999.90;;;22.20;99.90;;;;;;5075698;28;20112;-76
2023/08/22 00:39:24;;;;;;;1999.90;999.90;;;22.20;99.90;;;;;;5075524;28;20035;-75
2023/08/22 00:41:50;;;;;;;1999.90;999.90;;;22.10;99.90;;;;;;5075879;28;20027;-75
2023/08/22 00:44:15;;;;;;;1999.90;999.90;;;22.00;99.90;;;;;;5075403;28;20115;-75
2023/08/22 00:46:41;;;;;;;1999.90;999.90;;;22.00;99.90;;;;;;5076001;28;20020;-76
2023/08/22 00:49:09;;;;;;;1999.90;999.90;;;22.00;99.90;;;;;;5075447;28;20025;-76
2023/08/22 00:51:37;;;;;;;1999.90;999.90;;;21.90;99.90;;;;;;5076938;28;20020;-75
2023/08/22 00:54:03;;;;;;;1999.90;999.90;;;21.90;99.90;;;;;;5084174;28;20024;-75
2023/08/22 00:56:29;;;;;;;1999.90;999.90;;;21.80;99.90;;;;;;5075502;28;20520;-76
2023/08/22 00:58:58;;;;;;;1999.90;999.90;;;21.70;99.90;;;;;;5075751;28;20044;-75
2023/08/22 01:01:23;;;;;;;1999.90;999.90;;;21.70;99.90;;;;;;5075254;28;20021;-76
2023/08/22 01:03:49;;;;;;;1999.90;999.90;;;21.70;99.90;;;;;;5075013;28;20060;-75
2023/08/22 01:06:47;;;;;;;1999.90;999.90;;;21.60;99.90;;;;;;5073867;28;20025;-75
2023/08/22 01:09:18;;;;;;;1999.90;999.90;;;21.60;99.90;;;;;;5075154;28;20412;-76
2023/08/22 01:11:47;;;;;;;1999.90;999.90;;;21.60;99.90;;;;;;5075106;28;20387;-75
2023/08/22 01:14:19;;;;;;;1999.90;999.90;;;21.60;99.90;;;;;;5074017;28;20659;-75
2023/08/22 01:16:45;;;;;;;1999.90;999.90;;;21.60;99.90;;;;;;5075074;28;20458;-75
2023/08/22 01:19:13;;;;;;;1999.90;999.90;;;21.60;99.90;;;;;;5075027;28;20054;-75
2023/08/22 01:21:50;;;;;;;1999.90;999.90;;;21.60;99.90;;;;;;5075283;28;20044;-75
2023/08/22 01:24:16;;;;;;;1999.90;999.90;;;21.50;99.90;;;;;;5095165;28;20031;-75
2023/08/22 01:26:43;;;;;;;1999.90;999.90;;;21.50;99.90;;;;;;5093689;28;20024;-75
2023/08/22 01:29:10;;;;;;;1999.90;999.90;;;21.50;99.90;;;;;;5095060;28;20027;-75
2023/08/22 01:31:54;;;;;;;1999.90;999.90;;;21.40;99.90;;;;;;5095016;28;20503;-75
2023/08/22 01:34:25;;;;;;;1999.90;999.90;;;21.40;99.90;;;;;;5093895;28;20482;-75
2023/08/22 01:36:56;;;;;;;1999.90;999.90;;;21.40;99.90;;;;;;5094254;28;20024;-75
2023/08/22 01:39:24;;;;;;;1999.90;999.90;;;21.40;99.90;;;;;;5092280;28;20024;-75
2023/08/22 01:41:51;;;;;;;1999.90;999.90;;;21.40;99.90;;;;;;5094786;28;20046;-75
2023/08/22 01:44:17;;;;;;;1999.90;999.90;;;21.30;99.90;;;;;;5084518;28;20039;-74
2023/08/22 01:46:42;;;;;;;1999.90;999.90;;;21.30;99.90;;;;;;5073073;28;20028;-75
2023/08/22 01:49:08;;;;;;;1999.90;999.90;;;21.30;99.90;;;;;;5074166;28;20052;-75
2023/08/22 01:51:34;;;;;;;1999.90;999.90;;;21.30;99.90;;;;;;5077356;28;20035;-75
2023/08/22 01:53:59;;;;;;;1999.90;999.90;;;21.30;99.90;;;;;;5083027;28;20029;-74
2023/08/22 01:56:25;;;;;;;1999.90;999.90;;;21.30;99.90;;;;;;5074406;28;20070;-73
2023/08/22 01:58:51;;;;;;;1999.90;999.90;;;21.30;99.90;;;;;;5074488;28;20526;-73
2023/08/22 02:01:17;;;;;;;1999.90;999.90;;;21.30;99.90;;;;;;5074327;28;20056;-74
2023/08/22 02:03:43;;;;;;;1999.90;999.90;;;21.30;99.90;;;;;;5074160;28;20052;-75
2023/08/22 02:06:09;;;;;;;1999.90;999.90;;;21.20;99.90;;;;;;5073994;28;20029;-75
2023/08/22 02:08:35;;;;;;;1999.90;999.90;;;21.20;99.90;;;;;;5073976;28;20021;-74
2023/08/22 02:11:01;;;;;;;1999.90;999.90;;;21.20;99.90;;;;;;5074124;28;20025;-74
2023/08/22 02:13:26;;;;;;;1999.90;999.90;;;21.20;99.90;;;;;;5073825;28;20081;-75
2023/08/22 02:15:52;;;;;;;1999.90;999.90;;;21.20;99.90;;;;;;5073706;28;20575;-75
2023/08/22 02:18:18;;;;;;;1999.90;999.90;;;21.20;99.90;;;;;;5073659;28;20025;-74
2023/08/22 02:20:43;;;;;;;1999.90;999.90;;;21.10;99.90;;;;;;5072320;28;20030;-75
2023/08/22 02:23:09;;;;;;;1999.90;999.90;;;21.10;99.90;;;;;;5087355;28;20023;-74
2023/08/22 02:25:35;;;;;;;1999.90;999.90;;;21.10;99.90;;;;;;5093917;28;20400;-76
2023/08/22 02:28:02;;;;;;;1999.90;999.90;;;21.10;99.90;;;;;;5094184;28;20024;-75
2023/08/22 02:30:27;;;;;;;1999.90;999.90;;;21.10;99.90;;;;;;5092368;28;20063;-75
2023/08/22 02:32:53;;;;;;;1999.90;999.90;;;21.10;99.90;;;;;;5092874;28;20035;-76
2023/08/22 02:35:19;;;;;;;1999.90;999.90;;;21.00;99.90;;;;;;5093947;28;20555;-74
2023/08/22 02:37:46;;;;;;;1999.90;999.90;;;21.00;99.90;;;;;;5092354;28;20020;-74
2023/08/22 02:40:11;;;;;;;1999.90;999.90;;;21.00;99.90;;;;;;5093830;28;20459;-76
2023/08/22 02:42:38;;;;;;;1999.90;999.90;;;20.90;99.90;;;;;;5092157;28;20073;-76
2023/08/22 02:45:04;;;;;;;1999.90;999.90;;;20.90;99.90;;;;;;5077038;28;20103;-75
2023/08/22 02:47:31;;;;;;;1999.90;999.90;;;20.90;99.90;;;;;;5073118;28;20021;-74
2023/08/22 02:49:57;;;;;;;1999.90;999.90;;;21.00;99.90;;;;;;5071863;28;20036;-74
2023/08/22 02:52:23;;;;;;;1999.90;999.90;;;20.90;99.90;;;;;;5079450;28;20032;-75
2023/08/22 02:54:48;;;;;;;1999.90;999.90;;;20.90;99.90;;;;;;5088405;28;20517;-76
2023/08/22 02:57:14;;;;;;;1999.90;999.90;;;20.90;99.90;;;;;;5093292;28;20130;-76
2023/08/22 02:59:40;;;;;;;1999.90;999.90;;;20.90;99.90;;;;;;5093484;28;20036;-76
2023/08/22 03:02:05;;;;;;;1999.90;999.90;;;20.90;99.90;;;;;;5092948;28;20020;-74
2023/08/22 03:04:33;;;;;;;1999.90;999.90;;;20.90;99.90;;;;;;5093672;28;20024;-74
2023/08/22 03:06:58;;;;;;;1999.90;999.90;;;20.90;99.90;;;;;;5093370;28;20016;-76
2023/08/22 03:09:26;;;;;;;1999.90;999.90;;;20.90;99.90;;;;;;5093091;28;20414;-76
2023/08/22 03:11:51;;;;;;;1999.90;999.90;;;20.90;99.90;;;;;;5074396;28;20029;-76
2023/08/22 03:14:17;;;;;;;1999.90;999.90;;;20.90;99.90;;;;;;5072905;28;20419;-74
2023/08/22 03:16:42;;;;;;;1999.90;999.90;;;20.80;99.90;;;;;;5072877;28;20560;-74
2023/08/22 03:19:08;;;;;;;1999.90;999.90;;;20.80;99.90;;;;;;5072883;28;20064;-75
2023/08/22 03:21:34;;;;;;;1999.90;999.90;;;20.80;99.90;;;;;;5071002;28;20107;-75
2023/08/22 03:23:59;;;;;;;1999.90;999.90;;;20.80;99.90;;;;;;5092960;28;20035;-76
2023/08/22 03:26:25;;;;;;;1999.90;999.90;;;20.80;99.90;;;;;;5093354;28;20111;-75
2023/08/22 03:28:51;;;;;;;1999.90;999.90;;;20.80;99.90;;;;;;5093188;28;20073;-74
2023/08/22 03:31:17;;;;;;;1999.90;999.90;;;20.80;99.90;;;;;;5093225;28;20020;-76
2023/08/22 03:33:42;;;;;;;1999.90;999.90;;;20.80;99.90;;;;;;5093003;28;20036;-76
2023/08/22 03:36:08;;;;;;;1999.90;999.90;;;20.80;99.90;;;;;;5092783;28;20141;-76
2023/08/22 03:38:34;;;;;;;1999.90;999.90;;;20.80;99.90;;;;;;5092990;28;20032;-76
2023/08/22 03:41:00;;;;;;;1999.90;999.90;;;20.80;99.90;;;;;;5091787;28;20028;-74
2023/08/22 03:43:26;;;;;;;1999.90;999.90;;;20.70;99.90;;;;;;5090049;28;20033;-74
2023/08/22 03:45:51;;;;;;;1999.90;999.90;;;20.70;99.90;;;;;;5076885;28;20551;-75
2023/08/22 03:48:17;;;;;;;1999.90;999.90;;;20.70;99.90;;;;;;5076492;28;20095;-75
2023/08/22 03:50:43;;;;;;;1999.90;999.90;;;20.70;99.90;;;;;;5077898;28;20034;-75
2023/08/22 03:53:10;;;;;;;1999.90;999.90;;;20.70;99.90;;;;;;5084197;28;20056;-74
2023/08/22 03:55:35;;;;;;;1999.90;999.90;;;20.70;99.90;;;;;;5097050;28;20031;-74
2023/08/22 03:58:02;;;;;;;1999.90;999.90;;;20.70;99.90;;;;;;5096986;28;20071;-76
2023/08/22 04:00:27;;;;;;;1999.90;999.90;;;20.70;99.90;;;;;;5095180;28;20038;-76
2023/08/22 04:02:54;;;;;;;1999.90;999.90;;;20.70;99.90;;;;;;5095445;28;20512;-76
2023/08/22 04:05:21;;;;;;;1999.90;999.90;;;20.70;99.90;;;;;;5097075;28;20056;-74
2023/08/22 04:07:46;;;;;;;1999.90;999.90;;;20.70;99.90;;;;;;5096595;28;20024;-74
2023/08/22 04:10:12;;;;;;;1999.90;999.90;;;20.70;99.90;;;;;;5091704;28;20601;-75
2023/08/22 04:12:37;;;;;;;1999.90;999.90;;;20.70;99.90;;;;;;5076304;28;20047;-75
2023/08/22 04:15:03;;;;;;;1999.90;999.90;;;20.70;99.90;;;;;;5075955;28;20028;-76
2023/08/22 04:17:29;;;;;;;1999.90;999.90;;;20.70;99.90;;;;;;5076342;28;20036;-76
2023/08/22 04:19:54;;;;;;;1999.90;999.90;;;20.70;99.90;;;;;;5074949;28;20063;-74
2023/08/22 04:22:20;;;;;;;1999.90;999.90;;;20.70;99.90;;;;;;5081187;28;20020;-75
2023/08/22 04:24:46;;;;;;;1999.90;999.90;;;20.70;99.90;;;;;;5096199;28;20107;-75
2023/08/22 04:27:11;;;;;;;1999.90;999.90;;;20.80;99.90;;;;;;5096470;28;20150;-76
2023/08/22 04:29:37;;;;;;;1999.90;999.90;;;20.80;99.90;;;;;;5096413;28;20399;-76
2023/08/22 04:32:03;;;;;;;1999.90;999.90;;;20.90;99.90;;;;;;5096197;28;20035;-74
2023/08/22 04:34:29;;;;;;;1999.90;999.90;;;20.80;99.90;;;;;;5094839;28;20024;-74
2023/08/22 04:36:54;;;;;;;1999.90;999.90;;;20.80;99.90;;;;;;5096015;28;20042;-76
2023/08/22 04:39:20;;;;;;;1999.90;999.90;;;20.90;99.90;;;;;;5095754;28;20399;-74
2023/08/22 04:41:46;;;;;;;1999.90;999.90;;;20.80;99.90;;;;;;5096052;28;20024;-76
2023/08/22 04:44:11;;;;;;;1999.90;999.90;;;20.80;99.90;;;;;;5088112;28;20419;-76
2023/08/22 04:46:37;;;;;;;1999.90;999.90;;;20.80;99.90;;;;;;5077510;28;20028;-74
2023/08/22 04:49:02;;;;;;;1999.90;999.90;;;20.80;99.90;;;;;;5075503;28;20028;-76
2023/08/22 04:51:28;;;;;;;1999.90;999.90;;;20.80;99.90;;;;;;5079129;28;20112;-76
2023/08/22 04:53:54;;;;;;;1999.90;999.90;;;20.80;99.90;;;;;;5086597;28;20024;-76
2023/08/22 04:56:20;;;;;;;1999.90;999.90;;;20.80;99.90;;;;;;5094690;28;20024;-75
2023/08/22 04:58:46;;;;;;;1999.90;999.90;;;20.80;99.90;;;;;;5095455;28;20396;-74
2023/08/22 05:01:11;;;;;;;1999.90;999.90;;;20.80;99.90;;;;;;5095844;28;20032;-74
2023/08/22 05:03:37;;;;;;;1999.90;999.90;;;20.80;99.90;;;;;;5083926;28;20032;-75
2023/08/22 05:06:03;;;;;;;1999.90;999.90;;;20.80;99.90;;;;;;5073262;28;20560;-75
2023/08/22 05:08:28;;;;;;;1999.90;999.90;;;20.80;99.90;;;;;;5088757;28;20020;-75
2023/08/22 05:10:54;;;;;;;1999.90;999.90;;;20.80;99.90;;;;;;5074300;28;20427;-74
2023/08/22 05:13:19;;;;;;;1999.90;999.90;;;20.80;99.90;;;;;;5074602;28;20101;-74
2023/08/22 05:15:45;;;;;;;1999.90;999.90;;;20.80;99.90;;;;;;5083252;28;20023;-76
2023/08/22 05:18:11;;;;;;;1999.90;999.90;;;20.80;99.90;;;;;;5095419;28;20507;-75
2023/08/22 05:20:38;;;;;;;1999.90;999.90;;;20.80;99.90;;;;;;5093275;28;20059;-76
2023/08/22 05:23:04;;;;;;;1999.90;999.90;;;20.80;99.90;;;;;;5094819;28;20502;-75
2023/08/22 05:25:29;;;;;;;1999.90;999.90;;;20.80;99.90;;;;;;5095011;28;20020;-74
2023/08/22 05:27:55;;;;;;;1999.90;999.90;;;20.90;99.90;;;;;;5095218;28;20042;-75
2023/08/22 05:30:21;;;;;;;1999.90;999.90;;;20.90;99.90;;;;;;5094892;28;20028;-76
2023/08/22 05:32:47;;;;;;;1999.90;999.90;;;20.90;99.90;;;;;;5094066;28;20035;-75
2023/08/22 05:35:12;;;;;;;1999.90;999.90;;;21.00;99.90;;;;;;5091246;28;20036;-75
2023/08/22 05:37:38;;;;;;;1999.90;999.90;;;21.00;99.90;;;;;;5081862;28;20020;-75
2023/08/22 05:40:06;;;;;;;1999.90;999.90;;;21.10;99.90;;;;;;5094694;28;20028;-74
2023/08/22 05:42:32;;;;;;;1999.90;999.90;;;21.10;99.90;;;;;;5095087;28;20501;-76
2023/08/22 05:44:57;;;;;;;1999.90;999.90;;;21.10;99.90;;;;;;5076281;28;20059;-76
2023/08/22 05:47:23;;;;;;;1999.90;999.90;;;21.10;99.90;;;;;;5074978;28;20061;-77
2023/08/22 05:49:49;;;;;;;1999.90;999.90;;;21.20;99.90;;;;;;5083310;28;20403;-75
2023/08/22 05:52:14;;;;;;;1999.90;999.90;;;21.20;99.90;;;;;;5078230;28;20499;-75
2023/08/22 05:54:41;;;;;;;1999.90;999.90;;;21.30;99.90;;;;;;5087687;28;20028;-76
2023/08/22 05:57:06;;;;;;;1999.90;999.90;;;21.30;99.90;;;;;;5073767;28;20020;-76
2023/08/22 05:59:32;;;;;;;1999.90;999.90;;;21.40;99.90;;;;;;5073693;28;20103;-76
2023/08/22 06:01:58;;;;;;;1999.90;999.90;;;21.40;99.90;;;;;;5072226;28;20115;-76
2023/08/22 06:04:23;;;;;;;1999.90;999.90;;;21.50;99.90;;;;;;5073524;28;20090;-75
2023/08/22 06:06:50;;;;;;;1999.90;999.90;;;21.60;99.90;;;;;;5075172;28;20129;-76
2023/08/22 06:09:15;;;;;;;1999.90;999.90;;;21.60;99.90;;;;;;5080367;28;20103;-76
2023/08/22 06:11:41;;;;;;;1999.90;999.90;;;21.80;99.90;;;;;;5073691;28;20095;-76
2023/08/22 06:14:07;;;;;;;1999.90;999.90;;;21.80;99.90;;;;;;5074152;28;20028;-76
2023/08/22 06:16:34;;;;;;;1999.90;999.90;;;22.00;99.90;;;;;;5080216;28;20040;-76
2023/08/22 06:19:02;;;;;;;1999.90;999.90;;;22.00;99.90;;;;;;5080684;28;20437;-75
2023/08/22 06:21:28;;;;;;;1999.90;999.90;;;22.10;99.90;;;;;;5070481;28;20392;-76
2023/08/22 06:23:53;;;;;;;1999.90;999.90;;;22.10;99.90;;;;;;5086314;28;20050;-77
2023/08/22 06:26:20;;;;;;;1999.90;999.90;;;22.20;99.90;;;;;;5072512;28;20064;-76
2023/08/22 06:28:46;;;;;;;1999.90;999.90;;;22.20;99.90;;;;;;5076197;28;20017;-75
2023/08/22 06:31:12;;;;;;;1999.90;999.90;;;22.30;99.90;;;;;;5085378;28;20028;-75
2023/08/22 06:33:37;;;;;;;1999.90;999.90;;;22.40;99.90;;;;;;5092945;28;20507;-77
2023/08/22 06:36:03;;;;;;;1999.90;999.90;;;22.50;99.90;;;;;;5081088;28;20079;-76
2023/08/22 06:38:29;;;;;;;1999.90;999.90;;;22.50;99.90;;;;;;5084741;28;20126;-77
2023/08/22 06:40:55;;;;;;;1999.90;999.90;;;22.60;99.90;;;;;;5068897;28;20468;-76
2023/08/22 06:43:22;;;;;;;1999.90;999.90;;;22.70;99.90;;;;;;5072567;28;20066;-76
2023/08/22 06:45:48;;;;;;;1999.90;999.90;;;22.80;99.90;;;;;;5071399;28;20032;-76
2023/08/22 06:48:13;;;;;;;1999.90;999.90;;;22.90;99.90;;;;;;5081226;28;20031;-75
2023/08/22 06:50:39;;;;;;;1999.90;999.90;;;23.00;99.90;;;;;;5080970;28;20028;-75
2023/08/22 06:53:05;;;;;;;1999.90;999.90;;;23.20;99.90;;;;;;5081550;28;20410;-76
2023/08/22 06:55:30;;;;;;;1999.90;999.90;;;23.30;99.90;;;;;;5075081;28;20036;-74
2023/08/22 06:57:56;;;;;;;1999.90;999.90;;;23.40;99.90;;;;;;5070622;28;20091;-74
2023/08/22 07:00:21;;;;;;;1999.90;999.90;;;23.50;99.90;;;;;;5070658;28;20040;-75
2023/08/22 07:02:47;;;;;;;1999.90;999.90;;;23.60;99.90;;;;;;5070054;28;20044;-76
2023/08/22 07:05:15;;;;;;;1999.90;999.90;;;23.70;99.90;;;;;;5062790;28;20036;-74
2023/08/22 07:07:40;;;;;;;1999.90;999.90;;;23.80;99.90;;;;;;5085860;28;20049;-75
2023/08/22 07:10:08;;;;;;;1999.90;999.90;;;24.00;99.90;;;;;;5089424;28;20494;-75
2023/08/22 07:12:34;;;;;;;1999.90;999.90;;;24.20;99.90;;;;;;5070679;28;20032;-76
2023/08/22 07:15:00;;;;;;;1999.90;999.90;;;24.30;99.90;;;;;;5083853;28;20032;-75
2023/08/22 07:17:25;;;;;;;1999.90;999.90;;;24.40;99.90;;;;;;5070891;28;20075;-76
2023/08/22 07:19:51;;;;;;;1999.90;999.90;;;24.50;99.90;;;;;;5079589;28;20032;-75
2023/08/22 07:22:17;;;;;;;1999.90;999.90;;;24.60;99.90;;;;;;5080705;28;20162;-75
2023/08/22 07:24:42;;;;;;;1999.90;999.90;;;24.60;99.90;;;;;;5083233;28;20132;-76
2023/08/22 07:27:10;;;;;;;1999.90;999.90;;;24.80;99.90;;;;;;5075405;28;20150;-76
2023/08/22 07:29:36;;;;;;;1999.90;999.90;;;24.90;99.90;;;;;;5078746;28;20020;-76
2023/08/22 07:32:02;;;;;;;1999.90;999.90;;;25.00;99.90;;;;;;5075648;28;20103;-76
2023/08/22 07:34:27;;;;;;;1999.90;999.90;;;25.20;99.90;;;;;;5092099;28;20165;-75
2023/08/22 07:36:53;;;;;;;1999.90;999.90;;;25.30;99.90;;;;;;5071342;28;20111;-75
2023/08/22 07:39:20;;;;;;;1999.90;999.90;;;25.30;99.90;;;;;;5089481;28;20507;-76
2023/08/22 07:41:45;;;;;;;1999.90;999.90;;;25.50;99.90;;;;;;5071002;28;20368;-76
2023/08/22 07:44:12;;;;;;;1999.90;999.90;;;25.60;99.90;;;;;;5070504;28;20035;-76
2023/08/22 07:46:38;;;;;;;1999.90;999.90;;;25.80;99.90;;;;;;5070164;28;20476;-74
2023/08/22 07:49:03;;;;;;;1999.90;999.90;;;25.90;99.90;;;;;;5067247;28;20124;-74
2023/08/22 07:51:30;;;;;;;1999.90;999.90;;;26.00;99.90;;;;;;5075757;28;20044;-76
2023/08/22 07:53:56;;;;;;;1999.90;999.90;;;26.30;99.90;;;;;;5080816;28;20028;-76
2023/08/22 07:56:22;;;;;;;1999.90;999.90;;;26.40;99.90;;;;;;5084000;28;20028;-76
2023/08/22 07:58:48;;;;;;;1999.90;999.90;;;26.70;99.90;;;;;;5068183;28;20035;-76
2023/08/22 08:01:14;;;;;;;1999.90;999.90;;;27.00;99.90;;;;;;5074762;28;20107;-76
2023/08/22 08:03:40;;;;;;;1999.90;999.90;;;27.40;99.90;;;;;;5069356;28;20191;-75
2023/08/22 08:06:05;;;;;;;1999.90;999.90;;;28.10;99.90;;;;;;5068114;28;20029;-75
2023/08/22 08:08:31;;;;;;;1999.90;999.90;;;30.40;99.90;;;;;;5073934;28;20024;-76
2023/08/22 08:10:57;;;;;;;1999.90;999.90;;;32.50;99.90;;;;;;5080631;28;20347;-74
2023/08/22 08:13:22;;;;;;;1999.90;999.90;;;33.40;99.90;;;;;;5071296;28;20033;-73
2023/08/22 08:15:48;;;;;;;1999.90;999.90;;;33.90;99.90;;;;;;5070160;28;20514;-72
2023/08/22 08:18:15;;;;;;;1999.90;999.90;;;34.70;99.90;;;;;;5070462;28;20517;-74
2023/08/22 08:20:41;;;;;;;1999.90;999.90;;;35.30;99.90;;;;;;5071830;28;20025;-75
2023/08/22 08:23:07;;;;;;;1999.90;999.90;;;35.70;99.90;;;;;;5078291;28;20423;-74
2023/08/22 08:25:33;;;;;;;1999.90;999.90;;;36.20;99.90;;;;;;5087411;28;20032;-75
2023/08/22 08:27:58;;;;;;;1999.90;999.90;;;36.30;99.90;;;;;;5071036;28;20059;-75
2023/08/22 08:30:24;;;;;;;1999.90;999.90;;;36.40;99.90;;;;;;5071689;28;20037;-73
2023/08/22 08:32:50;;;;;;;1999.90;999.90;;;37.30;99.90;;;;;;5075681;28;20036;-73
2023/08/22 08:35:15;;;;;;;1999.90;999.90;;;37.20;99.70;;;;;;5071163;28;20029;-75
2023/08/22 08:37:41;;;;;;;1999.90;999.90;;;37.40;99.50;;;;;;5078013;28;20461;-75
2023/08/22 08:40:08;;;;;;;1999.90;999.90;;;37.80;98.60;;;;;;5083293;28;20032;-75
2023/08/22 08:42:38;;;;;;;1999.90;999.90;;;37.80;98.50;;;;;;5080180;28;20021;-73
2023/08/22 08:45:07;;;;;;;1999.90;999.90;;;38.00;98.40;;;;;;5074003;28;20502;-73
2023/08/22 08:47:33;;;;;;;1999.90;999.90;;;38.00;98.40;;;;;;5071971;28;20520;-75
2023/08/22 08:50:04;;;;;;;1999.90;999.90;;;38.00;98.10;;;;;;5073405;28;20036;-75
2023/08/22 08:52:30;;;;;;;1999.90;999.90;;;38.30;97.70;;;;;;5079971;28;20124;-73
2023/08/22 08:54:57;;;;;;;1999.90;999.90;;;38.30;97.80;;;;;;5077463;28;20085;-74
2023/08/22 08:57:22;;;;;;;1999.90;999.90;;;38.70;97.50;;;;;;5075020;28;20041;-74
2023/08/22 08:59:48;;;;;;;1999.90;999.90;;;38.60;97.40;;;;;;5071503;28;20449;-76
2023/08/22 09:02:17;;;;;;;1999.90;999.90;;;39.00;96.80;;;;;;5079944;28;20048;-75
2023/08/22 09:04:43;;;;;;;1999.90;999.90;;;39.10;96.40;;;;;;5077955;28;20029;-75
2023/08/22 09:07:09;;;;;;;1999.90;999.90;;;39.40;96.80;;;;;;5080116;28;20072;-74
2023/08/22 09:09:36;;;;;;;1999.90;999.90;;;39.00;96.10;;;;;;5073638;28;20510;-75
2023/08/22 09:12:06;;;;;;;1999.90;999.90;;;39.10;96.10;;;;;;5072548;28;20024;-75
2023/08/22 09:14:32;;;;;;;1999.90;999.90;;;39.70;96.10;;;;;;5074004;28;20032;-75
2023/08/22 09:17:01;;;;;;;1999.90;999.90;;;39.60;95.50;;;;;;5075058;28;20399;-75
2023/08/22 09:19:32;;;;;;;1999.90;999.90;;;39.60;95.70;;;;;;5077532;28;20020;-74
2023/08/22 09:21:59;;;;;;;1999.90;999.90;;;39.40;95.40;;;;;;5073556;28;20023;-75
2023/08/22 09:24:25;;;;;;;1999.90;999.90;;;39.50;95.90;;;;;;5073506;28;20028;-76
2023/08/22 09:26:51;;;;;;;1999.90;999.90;;;39.60;95.10;;;;;;5073784;28;20020;-76
2023/08/22 09:29:25;;;;;;;1999.90;999.90;;;39.70;95.60;;;;;;5074771;28;20389;-75
2023/08/22 09:32:01;;;;;;;1999.90;999.90;;;39.70;94.90;;;;;;5073359;28;20403;-75
2023/08/22 09:34:26;;;;;;;1999.90;999.90;;;40.20;95.30;;;;;;5070419;28;20111;-74
2023/08/22 09:36:56;;;;;;;1999.90;999.90;;;40.10;94.30;;;;;;5073047;28;20127;-75
2023/08/22 09:39:23;;;;;;;1999.90;999.90;;;40.10;94.40;;;;;;5083754;28;20418;-75
2023/08/22 09:41:55;;;;;;;1999.90;999.90;;;39.80;94.00;;;;;;5077103;28;20032;-75
2023/08/22 09:44:25;;;;;;;1999.90;999.90;;;40.10;94.20;;;;;;5072145;28;20143;-74
2023/08/22 09:46:53;;;;;;;1999.90;999.90;;;39.80;94.30;;;;;;5068543;28;20029;-74
2023/08/22 09:49:19;;;;;;;1999.90;999.90;;;39.60;94.30;;;;;;5073070;28;20255;-75
2023/08/22 09:51:47;;;;;;;1999.90;999.90;;;39.50;94.20;;;;;;5072945;28;20054;-74
2023/08/22 09:54:14;;;;;;;1999.90;999.90;;;39.30;94.60;;;;;;5071924;28;20068;-75
2023/08/22 09:56:40;;;;;;;1999.90;999.90;;;39.40;94.50;;;;;;5072022;28;20220;-74
2023/08/22 09:59:06;;;;;;;1999.90;999.90;;;39.90;94.70;;;;;;5072007;28;20034;-74
2023/08/22 10:01:37;;;;;;;1999.90;999.90;;;40.20;93.90;;;;;;5078690;28;20521;-75
2023/08/22 10:04:05;;;;;;;1999.90;999.90;;;40.20;93.80;;;;;;5077048;28;20135;-75
2023/08/22 10:06:33;;;;;;;1999.90;999.90;;;40.30;93.70;;;;;;5070734;28;20025;-75
2023/08/22 10:09:04;;;;;;;1999.90;999.90;;;39.90;93.60;;;;;;5065673;28;20119;-75
2023/08/22 10:11:30;;;;;;;1999.90;999.90;;;39.20;94.00;;;;;;5075711;28;20043;-74
2023/08/22 10:13:57;;;;;;;1999.90;999.90;;;39.70;94.10;;;;;;5073527;28;20479;-75
2023/08/22 10:16:29;;;;;;;1999.90;999.90;;;39.70;93.90;;;;;;5076289;28;20034;-75
2023/08/22 10:19:02;;;;;;;1999.90;999.90;;;39.40;93.20;;;;;;5069957;28;20028;-75
2023/08/22 10:21:32;;;;;;;1999.90;999.90;;;39.40;93.70;;;;;;5071475;28;20040;-75
2023/08/22 10:23:58;;;;;;;1999.90;999.90;;;39.50;93.80;;;;;;5069797;28;20020;-75
2023/08/22 10:26:47;;;;;;;1999.90;999.90;;;39.60;93.50;;;;;;5070655;28;20119;-75
2023/08/22 10:29:19;;;;;;;1999.90;999.90;;;39.10;93.70;;;;;;5069785;28;20106;-75
2023/08/22 10:32:03;;;;;;;1999.90;999.90;;;38.80;94.40;;;;;;5077177;28;20016;-75
2023/08/22 10:34:34;;;;;;;1999.90;999.90;;;38.40;94.00;;;;;;5072974;28;20036;-75
2023/08/22 10:37:03;;;;;;;1999.90;999.90;;;38.00;94.50;;;;;;5075145;28;20025;-74
2023/08/22 10:39:48;;;;;;;1999.90;999.90;;;36.80;95.40;;;;;;5078762;28;21188;-74
2023/08/22 10:42:17;;;;;;;1999.90;999.90;;;36.40;96.30;;;;;;5080465;28;20054;-74
2023/08/22 10:44:47;;;;;;;1999.90;999.90;;;36.00;96.90;;;;;;5074837;28;20036;-74
2023/08/22 10:47:20;;;;;;;1999.90;999.90;;;36.10;97.00;;;;;;5080504;28;20403;-74
2023/08/22 10:49:53;;;;;;;1999.90;999.90;;;36.00;97.30;;;;;;5077237;28;20085;-74
2023/08/22 10:52:26;;;;;;;1999.90;999.90;;;36.00;97.70;;;;;;5082632;28;20043;-74
2023/08/22 10:55:08;;;;;;;1999.90;999.90;;;35.60;98.30;;;;;;5075754;28;20089;-75
2023/08/22 10:57:38;;;;;;;1999.90;999.90;;;35.70;98.50;;;;;;5075575;28;20024;-74
2023/08/22 11:00:19;;;;;;;1999.90;999.90;;;35.60;98.80;;;;;;5076930;28;20078;-75
2023/08/22 11:02:50;;;;;;;1999.90;999.90;;;35.60;99.10;;;;;;5075361;28;20032;-74
2023/08/22 11:05:16;;;;;;;1999.90;999.90;;;35.70;99.30;;;;;;5076235;28;20036;-74
2023/08/22 11:07:46;;;;;;;1999.90;999.90;;;35.70;99.70;;;;;;5075027;28;20035;-75
2023/08/22 11:10:23;;;;;;;1999.90;999.90;;;35.40;99.60;;;;;;5067669;28;20032;-74
2023/08/22 11:12:53;;;;;;;1999.90;999.90;;;35.10;99.90;;;;;;5062760;28;20437;-75
2023/08/22 11:15:18;;;;;;;1999.90;999.90;;;34.50;99.90;;;;;;5075081;28;20039;-74
2023/08/22 11:17:50;;;;;;;1999.90;999.90;;;34.40;99.90;;;;;;5080205;28;20043;-74
2023/08/22 11:20:17;;;;;;;1999.90;999.90;;;34.50;99.90;;;;;;5081236;28;20603;-75
2023/08/22 11:22:44;;;;;;;1999.90;999.90;;;34.70;99.90;;;;;;5081808;28;20020;-75
2023/08/22 11:25:11;;;;;;;1999.90;999.90;;;35.10;99.90;;;;;;5081701;28;20106;-76
2023/08/22 11:27:38;;;;;;;1999.90;999.90;;;35.30;99.90;;;;;;5077896;28;20071;-75
2023/08/22 11:30:05;;;;;;;1999.90;999.90;;;35.80;99.90;;;;;;5080623;28;20491;-75
2023/08/22 11:32:38;;;;;;;1999.90;999.90;;;36.00;99.30;;;;;;5082307;28;20118;-75
2023/08/22 11:35:08;;;;;;;1999.90;999.90;;;36.70;98.90;;;;;;5071791;28;20032;-75
2023/08/22 11:37:38;;;;;;;1999.90;999.90;;;36.60;99.00;;;;;;5075963;28;20028;-75
2023/08/22 11:40:05;;;;;;;1999.90;999.90;;;36.30;99.20;;;;;;5076307;28;20028;-74
2023/08/22 11:42:33;;;;;;;1999.90;999.90;;;35.30;99.90;;;;;;5070771;28;20111;-74
2023/08/22 11:45:05;;;;;;;1999.90;999.90;;;35.10;99.90;;;;;;5070864;28;20032;-74
2023/08/22 11:47:48;;;;;;;1999.90;999.90;;;35.00;99.90;;;;;;5071842;28;20382;-73
2023/08/22 11:50:14;;;;;;;1999.90;999.90;;;34.50;99.90;;;;;;5075192;28;20032;-73
2023/08/22 11:52:44;;;;;;;1999.90;999.90;;;34.30;99.90;;;;;;5070588;28;20519;-73
2023/08/22 11:55:11;;;;;;;1999.90;999.90;;;34.50;99.90;;;;;;5074839;28;20033;-75
2023/08/22 11:57:41;;;;;;;1999.90;999.90;;;34.20;99.90;;;;;;5076518;28;20455;-73